sensor_id;sensor_type;location;lat;lon;timestamp;pressure;altitude;pressure_sealevel;temperature;humidity
10712;BME280;5407;51.234;6.804;2023-08-06T00:01:48;99933.50;;;18.42;90.08
10712;BME280;5407;51.234;6.804;2023-08-06T00:04:15;99934.31;;;18.39;90.35
10712;BME280;5407;51.234;6.804;2023-08-06T00:06:42;99924.16;;;18.40;90.21
10712;BME280;5407;51.234;6.804;2023-08-06T00:09:09;99928.13;;;18.35;90.08
10712;BME280;5407;51.234;6.804;2023-08-06T00:11:37;99925.34;;;18.39;89.98
10712;BME280;5407;51.234;6.804;2023-08-06T00:14:04;99924.56;;;18.38;88.65
10712;BME280;5407;51.234;6.804;2023-08-06T00:16:31;99915.56;;;18.41;88.75
10712;BME280;5407;51.234;6.804;2023-08-06T00:18:58;99914.91;;;18.30;88.82
10712;BME280;5407;51.234;6.804;2023-08-06T00:21:25;99904.78;;;18.31;89.70
10712;BME280;5407;51.234;6.804;2023-08-06T00:23:51;99910.22;;;18.31;89.06
10712;BME280;5407;51.234;6.804;2023-08-06T00:26:18;99899.72;;;18.29;89.02
10712;BME280;5407;51.234;6.804;2023-08-06T00:28:47;99909.56;;;18.20;88.54
10712;BME280;5407;51.234;6.804;2023-08-06T00:31:14;99903.31;;;18.19;88.88
10712;BME280;5407;51.234;6.804;2023-08-06T00:33:41;99903.06;;;18.10;88.54
10712;BME280;5407;51.234;6.804;2023-08-06T00:36:08;99909.22;;;18.18;89.21
10712;BME280;5407;51.234;6.804;2023-08-06T00:38:34;99906.41;;;18.21;89.17
10712;BME280;5407;51.234;6.804;2023-08-06T00:41:01;99902.97;;;18.17;88.65
10712;BME280;5407;51.234;6.804;2023-08-06T00:43:28;99905.69;;;18.17;88.83
10712;BME280;5407;51.234;6.804;2023-08-06T00:45:57;99907.97;;;18.22;89.07
10712;BME280;5407;51.234;6.804;2023-08-06T00:48:24;99903.25;;;18.26;89.45
10712;BME280;5407;51.234;6.804;2023-08-06T00:50:51;99904.72;;;18.34;88.65
10712;BME280;5407;51.234;6.804;2023-08-06T00:53:18;99907.53;;;18.27;89.03
10712;BME280;5407;51.234;6.804;2023-08-06T00:55:45;99915.72;;;18.27;89.31
10712;BME280;5407;51.234;6.804;2023-08-06T00:58:12;99904.88;;;18.20;89.24
10712;BME280;5407;51.234;6.804;2023-08-06T01:00:39;99904.06;;;18.23;89.03
10712;BME280;5407;51.234;6.804;2023-08-06T01:03:08;99908.06;;;18.15;88.65
10712;BME280;5407;51.234;6.804;2023-08-06T01:05:35;99908.06;;;18.15;88.81
10712;BME280;5407;51.234;6.804;2023-08-06T01:08:16;99898.75;;;18.13;88.74
10712;BME280;5407;51.234;6.804;2023-08-06T01:10:53;99894.38;;;18.19;88.99
10712;BME280;5407;51.234;6.804;2023-08-06T01:13:32;99895.28;;;18.09;88.87
10712;BME280;5407;51.234;6.804;2023-08-06T01:16:01;99894.03;;;18.17;88.56
10712;BME280;5407;51.234;6.804;2023-08-06T01:18:32;99894.06;;;18.13;88.31
10712;BME280;5407;51.234;6.804;2023-08-06T01:21:00;99886.19;;;18.19;88.16
10712;BME280;5407;51.234;6.804;2023-08-06T01:23:27;99886.94;;;18.19;88.36
10712;BME280;5407;51.234;6.804;2023-08-06T01:25:59;99892.94;;;18.11;88.26
10712;BME280;5407;51.234;6.804;2023-08-06T01:28:41;99891.75;;;18.12;88.56
10712;BME280;5407;51.234;6.804;2023-08-06T01:31:15;99890.13;;;18.14;88.15
10712;BME280;5407;51.234;6.804;2023-08-06T01:33:46;99884.59;;;18.21;88.18
10712;BME280;5407;51.234;6.804;2023-08-06T01:36:16;99884.59;;;18.21;87.83
10712;BME280;5407;51.234;6.804;2023-08-06T01:38:44;99883.75;;;18.24;87.64
10712;BME280;5407;51.234;6.804;2023-08-06T01:41:11;99882.22;;;18.23;87.69
10712;BME280;5407;51.234;6.804;2023-08-06T01:43:38;99882.31;;;18.16;88.01
10712;BME280;5407;51.234;6.804;2023-08-06T01:46:05;99882.31;;;18.16;87.70
10712;BME280;5407;51.234;6.804;2023-08-06T01:48:32;99876.22;;;18.05;88.48
10712;BME280;5407;51.234;6.804;2023-08-06T01:50:58;99873.88;;;18.07;88.18
10712;BME280;5407;51.234;6.804;2023-08-06T01:53:27;99865.56;;;18.14;88.83
10712;BME280;5407;51.234;6.804;2023-08-06T01:55:53;99876.91;;;18.13;88.08
10712;BME280;5407;51.234;6.804;2023-08-06T01:58:20;99869.09;;;18.15;88.18
10712;BME280;5407;51.234;6.804;2023-08-06T02:00:47;99869.94;;;18.08;88.24
10712;BME280;5407;51.234;6.804;2023-08-06T02:03:14;99864.50;;;18.08;89.23
10712;BME280;5407;51.234;6.804;2023-08-06T02:05:41;99867.59;;;18.10;89.17
10712;BME280;5407;51.234;6.804;2023-08-06T02:08:08;99863.66;;;18.11;88.91
10712;BME280;5407;51.234;6.804;2023-08-06T02:10:36;99861.91;;;18.24;88.48
10712;BME280;5407;51.234;6.804;2023-08-06T02:13:03;99863.53;;;18.22;88.72
10712;BME280;5407;51.234;6.804;2023-08-06T02:15:30;99854.63;;;18.18;89.38
10712;BME280;5407;51.234;6.804;2023-08-06T02:17:57;99862.03;;;18.17;88.87
10712;BME280;5407;51.234;6.804;2023-08-06T02:20:23;99863.94;;;18.20;88.81
10712;BME280;5407;51.234;6.804;2023-08-06T02:22:50;99855.66;;;18.27;88.45
10712;BME280;5407;51.234;6.804;2023-08-06T02:25:17;99855.81;;;18.17;88.71
10712;BME280;5407;51.234;6.804;2023-08-06T02:27:45;99857.63;;;18.23;88.87
10712;BME280;5407;51.234;6.804;2023-08-06T02:30:12;99855.72;;;18.20;89.09
10712;BME280;5407;51.234;6.804;2023-08-06T02:32:39;99857.63;;;18.27;88.43
10712;BME280;5407;51.234;6.804;2023-08-06T02:35:06;99848.72;;;18.19;88.81
10712;BME280;5407;51.234;6.804;2023-08-06T02:37:33;99851.19;;;18.10;89.21
10712;BME280;5407;51.234;6.804;2023-08-06T02:40:00;99848.13;;;18.08;89.41
10712;BME280;5407;51.234;6.804;2023-08-06T02:42:27;99845.78;;;18.07;89.73
10712;BME280;5407;51.234;6.804;2023-08-06T02:44:56;99847.66;;;18.13;89.22
10712;BME280;5407;51.234;6.804;2023-08-06T02:47:23;99848.72;;;18.19;88.92
10712;BME280;5407;51.234;6.804;2023-08-06T02:49:50;99841.84;;;18.11;89.25
10712;BME280;5407;51.234;6.804;2023-08-06T02:52:18;99837.16;;;18.12;89.68
10712;BME280;5407;51.234;6.804;2023-08-06T02:54:45;99843.47;;;18.05;88.90
10712;BME280;5407;51.234;6.804;2023-08-06T02:57:14;99839.47;;;18.13;89.06
10712;BME280;5407;51.234;6.804;2023-08-06T02:59:40;99838.69;;;18.13;88.86
10712;BME280;5407;51.234;6.804;2023-08-06T03:02:16;99831.75;;;18.08;88.94
10712;BME280;5407;51.234;6.804;2023-08-06T03:04:52;99831.75;;;18.08;90.04
10712;BME280;5407;51.234;6.804;2023-08-06T03:07:22;99829.25;;;18.17;90.11
10712;BME280;5407;51.234;6.804;2023-08-06T03:09:54;99825.72;;;18.20;89.33
10712;BME280;5407;51.234;6.804;2023-08-06T03:12:21;99827.78;;;18.13;89.28
10712;BME280;5407;51.234;6.804;2023-08-06T03:14:48;99820.69;;;18.19;89.19
10712;BME280;5407;51.234;6.804;2023-08-06T03:17:17;99817.97;;;18.15;88.96
10712;BME280;5407;51.234;6.804;2023-08-06T03:19:44;99821.13;;;18.14;89.72
10712;BME280;5407;51.234;6.804;2023-08-06T03:22:12;99819.16;;;18.14;90.30
10712;BME280;5407;51.234;6.804;2023-08-06T03:24:39;99821.44;;;18.19;90.20
10712;BME280;5407;51.234;6.804;2023-08-06T03:27:07;99824.94;;;18.20;90.58
10712;BME280;5407;51.234;6.804;2023-08-06T03:29:36;99822.91;;;18.27;89.90
10712;BME280;5407;51.234;6.804;2023-08-06T03:32:04;99818.22;;;18.24;90.41
10712;BME280;5407;51.234;6.804;2023-08-06T03:34:32;99820.97;;;18.24;90.72
10712;BME280;5407;51.234;6.804;2023-08-06T03:37:00;99820.59;;;18.22;90.23
10712;BME280;5407;51.234;6.804;2023-08-06T03:39:27;99812.13;;;18.17;90.42
10712;BME280;5407;51.234;6.804;2023-08-06T03:41:54;99815.16;;;18.22;90.20
10712;BME280;5407;51.234;6.804;2023-08-06T03:44:21;99812.06;;;18.20;90.53
10712;BME280;5407;51.234;6.804;2023-08-06T03:46:48;99811.22;;;18.27;90.50
10712;BME280;5407;51.234;6.804;2023-08-06T03:49:15;99813.56;;;18.25;90.87
10712;BME280;5407;51.234;6.804;2023-08-06T03:51:44;99809.78;;;18.15;90.74
10712;BME280;5407;51.234;6.804;2023-08-06T03:54:11;99811.31;;;18.20;90.45
10712;BME280;5407;51.234;6.804;2023-08-06T03:56:38;99807.03;;;18.19;90.29
10712;BME280;5407;51.234;6.804;2023-08-06T03:59:05;99803.22;;;18.13;90.68
10712;BME280;5407;51.234;6.804;2023-08-06T04:01:31;99809.50;;;18.10;90.99
10712;BME280;5407;51.234;6.804;2023-08-06T04:03:58;99800.41;;;18.16;91.21
10712;BME280;5407;51.234;6.804;2023-08-06T04:06:25;99801.97;;;18.17;90.81
10712;BME280;5407;51.234;6.804;2023-08-06T04:08:53;99801.31;;;18.10;90.38
10712;BME280;5407;51.234;6.804;2023-08-06T04:11:20;99808.31;;;18.11;89.79
10712;BME280;5407;51.234;6.804;2023-08-06T04:13:47;99807.53;;;18.10;89.93
10712;BME280;5407;51.234;6.804;2023-08-06T04:16:14;99805.59;;;18.11;90.15
10712;BME280;5407;51.234;6.804;2023-08-06T04:18:41;99809.06;;;18.11;89.49
10712;BME280;5407;51.234;6.804;2023-08-06T04:21:08;99802.53;;;18.05;90.37
10712;BME280;5407;51.234;6.804;2023-08-06T04:23:35;99804.41;;;18.12;89.74
10712;BME280;5407;51.234;6.804;2023-08-06T04:26:06;99810.63;;;18.12;89.15
10712;BME280;5407;51.234;6.804;2023-08-06T04:28:35;99801.75;;;18.05;89.92
10712;BME280;5407;51.234;6.804;2023-08-06T04:31:02;99807.63;;;18.03;89.35
10712;BME280;5407;51.234;6.804;2023-08-06T04:33:31;99805.03;;;17.93;89.74
10712;BME280;5407;51.234;6.804;2023-08-06T04:36:03;99806.03;;;18.06;90.14
10712;BME280;5407;51.234;6.804;2023-08-06T04:38:30;99798.97;;;18.08;89.95
10712;BME280;5407;51.234;6.804;2023-08-06T04:40:57;99800.28;;;18.00;90.41
10712;BME280;5407;51.234;6.804;2023-08-06T04:43:26;99801.75;;;18.05;90.32
10712;BME280;5407;51.234;6.804;2023-08-06T04:45:54;99809.19;;;18.04;90.12
10712;BME280;5407;51.234;6.804;2023-08-06T04:48:21;99807.63;;;18.03;90.07
10712;BME280;5407;51.234;6.804;2023-08-06T04:50:50;99810.72;;;18.05;89.83
10712;BME280;5407;51.234;6.804;2023-08-06T04:53:17;99814.69;;;18.01;89.97
10712;BME280;5407;51.234;6.804;2023-08-06T04:55:44;99802.09;;;18.07;90.48
10712;BME280;5407;51.234;6.804;2023-08-06T04:58:11;99813.91;;;18.00;90.51
10712;BME280;5407;51.234;6.804;2023-08-06T05:00:40;99813.84;;;18.04;90.78
10712;BME280;5407;51.234;6.804;2023-08-06T05:03:07;99809.94;;;18.05;90.40
10712;BME280;5407;51.234;6.804;2023-08-06T05:05:34;99813.78;;;18.11;90.67
10712;BME280;5407;51.234;6.804;2023-08-06T05:08:01;99810.97;;;18.14;89.90
10712;BME280;5407;51.234;6.804;2023-08-06T05:10:28;99810.00;;;18.01;91.22
10712;BME280;5407;51.234;6.804;2023-08-06T05:12:55;99814.53;;;18.11;90.55
10712;BME280;5407;51.234;6.804;2023-08-06T05:15:22;99814.19;;;18.09;90.74
10712;BME280;5407;51.234;6.804;2023-08-06T05:17:52;99828.03;;;18.22;90.13
10712;BME280;5407;51.234;6.804;2023-08-06T05:20:20;99822.56;;;18.22;90.05
10712;BME280;5407;51.234;6.804;2023-08-06T05:22:47;99825.25;;;18.25;89.85
10712;BME280;5407;51.234;6.804;2023-08-06T05:25:14;99825.25;;;18.25;90.33
10712;BME280;5407;51.234;6.804;2023-08-06T05:27:41;99827.44;;;18.37;89.66
10712;BME280;5407;51.234;6.804;2023-08-06T05:30:08;99837.78;;;18.49;88.50
10712;BME280;5407;51.234;6.804;2023-08-06T05:32:35;99829.25;;;18.70;88.61
10712;BME280;5407;51.234;6.804;2023-08-06T05:35:04;99832.25;;;18.79;87.17
10712;BME280;5407;51.234;6.804;2023-08-06T05:37:31;99840.16;;;18.70;87.34
10712;BME280;5407;51.234;6.804;2023-08-06T05:39:58;99833.53;;;18.71;87.19
10712;BME280;5407;51.234;6.804;2023-08-06T05:42:26;99833.72;;;18.61;88.15
10712;BME280;5407;51.234;6.804;2023-08-06T05:44:53;99838.50;;;18.76;88.21
10712;BME280;5407;51.234;6.804;2023-08-06T05:47:19;99833.53;;;18.94;87.46
10712;BME280;5407;51.234;6.804;2023-08-06T05:49:46;99837.94;;;18.88;86.52
10712;BME280;5407;51.234;6.804;2023-08-06T05:52:15;99840.84;;;18.78;85.89
10712;BME280;5407;51.234;6.804;2023-08-06T05:54:41;99847.19;;;18.71;86.56
10712;BME280;5407;51.234;6.804;2023-08-06T05:57:08;99848.63;;;18.79;86.21
10712;BME280;5407;51.234;6.804;2023-08-06T05:59:35;99851.38;;;18.79;86.07
10712;BME280;5407;51.234;6.804;2023-08-06T06:02:02;99847.06;;;18.78;86.38
10712;BME280;5407;51.234;6.804;2023-08-06T06:04:29;99848.03;;;18.91;85.91
10712;BME280;5407;51.234;6.804;2023-08-06T06:06:56;99846.25;;;18.81;86.19
10712;BME280;5407;51.234;6.804;2023-08-06T06:09:25;99859.44;;;18.86;85.50
10712;BME280;5407;51.234;6.804;2023-08-06T06:11:52;99856.41;;;18.81;85.47
10712;BME280;5407;51.234;6.804;2023-08-06T06:14:19;99854.56;;;18.97;84.26
10712;BME280;5407;51.234;6.804;2023-08-06T06:16:45;99860.59;;;19.08;84.47
10712;BME280;5407;51.234;6.804;2023-08-06T06:19:12;99865.59;;;19.13;83.47
10712;BME280;5407;51.234;6.804;2023-08-06T06:21:40;99870.66;;;19.14;83.08
10712;BME280;5407;51.234;6.804;2023-08-06T06:24:06;99864.41;;;19.14;83.70
10712;BME280;5407;51.234;6.804;2023-08-06T06:26:35;99869.78;;;19.21;83.47
10712;BME280;5407;51.234;6.804;2023-08-06T06:29:02;99872.16;;;19.19;83.47
10712;BME280;5407;51.234;6.804;2023-08-06T06:31:29;99875.34;;;19.14;83.38
10712;BME280;5407;51.234;6.804;2023-08-06T06:33:55;99881.53;;;19.18;83.47
10712;BME280;5407;51.234;6.804;2023-08-06T06:36:23;99884.28;;;19.18;83.42
10712;BME280;5407;51.234;6.804;2023-08-06T06:38:50;99880.72;;;19.21;83.36
10712;BME280;5407;51.234;6.804;2023-08-06T06:41:17;99885.25;;;19.31;82.73
10712;BME280;5407;51.234;6.804;2023-08-06T06:43:45;99879.63;;;19.38;82.30
10712;BME280;5407;51.234;6.804;2023-08-06T06:46:12;99886.38;;;19.53;81.71
10712;BME280;5407;51.234;6.804;2023-08-06T06:48:39;99881.00;;;19.49;81.55
10712;BME280;5407;51.234;6.804;2023-08-06T06:51:06;99883.44;;;19.44;81.30
10712;BME280;5407;51.234;6.804;2023-08-06T06:53:33;99885.09;;;19.38;80.83
10712;BME280;5407;51.234;6.804;2023-08-06T06:56:02;99878.38;;;19.42;81.91
10712;BME280;5407;51.234;6.804;2023-08-06T06:58:29;99880.19;;;19.49;81.62
10712;BME280;5407;51.234;6.804;2023-08-06T07:00:58;99877.63;;;19.61;80.30
10712;BME280;5407;51.234;6.804;2023-08-06T07:03:25;99883.84;;;19.62;81.00
10712;BME280;5407;51.234;6.804;2023-08-06T07:05:56;99886.78;;;19.71;80.56
10712;BME280;5407;51.234;6.804;2023-08-06T07:08:23;99887.38;;;19.82;79.27
10712;BME280;5407;51.234;6.804;2023-08-06T07:10:50;99887.09;;;19.96;78.08
10712;BME280;5407;51.234;6.804;2023-08-06T07:13:17;99888.22;;;19.98;77.25
10712;BME280;5407;51.234;6.804;2023-08-06T07:15:44;99892.56;;;19.96;77.03
10712;BME280;5407;51.234;6.804;2023-08-06T07:18:12;99885.41;;;20.02;75.29
10712;BME280;5407;51.234;6.804;2023-08-06T07:20:39;99890.16;;;19.98;75.60
10712;BME280;5407;51.234;6.804;2023-08-06T07:23:06;99890.88;;;19.82;75.85
10712;BME280;5407;51.234;6.804;2023-08-06T07:25:32;99888.50;;;20.04;74.17
10712;BME280;5407;51.234;6.804;2023-08-06T07:27:59;99892.44;;;20.03;74.79
10712;BME280;5407;51.234;6.804;2023-08-06T07:30:27;99889.69;;;20.03;74.46
10712;BME280;5407;51.234;6.804;2023-08-06T07:32:54;99889.69;;;19.83;75.21
10712;BME280;5407;51.234;6.804;2023-08-06T07:35:24;99887.28;;;19.85;75.40
10712;BME280;5407;51.234;6.804;2023-08-06T07:37:53;99899.09;;;19.82;76.26
10712;BME280;5407;51.234;6.804;2023-08-06T07:40:20;99891.69;;;20.02;76.18
10712;BME280;5407;51.234;6.804;2023-08-06T07:42:46;99897.56;;;20.01;76.13
10712;BME280;5407;51.234;6.804;2023-08-06T07:45:14;99893.41;;;20.12;75.71
10712;BME280;5407;51.234;6.804;2023-08-06T07:47:41;99898.44;;;20.33;75.16
10712;BME280;5407;51.234;6.804;2023-08-06T07:50:08;99891.75;;;20.34;74.57
10712;BME280;5407;51.234;6.804;2023-08-06T07:52:37;99894.84;;;20.36;75.13
10712;BME280;5407;51.234;6.804;2023-08-06T07:55:04;99894.25;;;20.29;75.32
10712;BME280;5407;51.234;6.804;2023-08-06T07:57:31;99897.56;;;20.36;75.38
10712;BME280;5407;51.234;6.804;2023-08-06T07:59:59;99897.56;;;20.36;75.38
10712;BME280;5407;51.234;6.804;2023-08-06T08:02:28;99903.00;;;20.56;74.48
10712;BME280;5407;51.234;6.804;2023-08-06T08:04:55;99906.78;;;20.62;72.84
10712;BME280;5407;51.234;6.804;2023-08-06T08:07:22;99904.41;;;20.79;72.32
10712;BME280;5407;51.234;6.804;2023-08-06T08:09:50;99907.69;;;20.90;72.40
10712;BME280;5407;51.234;6.804;2023-08-06T08:12:17;99906.84;;;20.93;72.75
10712;BME280;5407;51.234;6.804;2023-08-06T08:14:44;99909.53;;;20.77;72.76
10712;BME280;5407;51.234;6.804;2023-08-06T08:17:11;99914.19;;;20.96;72.30
10712;BME280;5407;51.234;6.804;2023-08-06T08:19:39;99910.88;;;20.89;72.84
10712;BME280;5407;51.234;6.804;2023-08-06T08:22:06;99918.47;;;20.97;72.13
10712;BME280;5407;51.234;6.804;2023-08-06T08:24:33;99919.44;;;20.91;72.83
10712;BME280;5407;51.234;6.804;2023-08-06T08:27:02;99920.97;;;20.92;73.59
10712;BME280;5407;51.234;6.804;2023-08-06T08:29:29;99918.72;;;21.19;71.99
10712;BME280;5407;51.234;6.804;2023-08-06T08:31:55;99922.44;;;21.57;69.95
10712;BME280;5407;51.234;6.804;2023-08-06T08:34:22;99919.19;;;21.62;69.40
10712;BME280;5407;51.234;6.804;2023-08-06T08:36:49;99925.34;;;21.94;67.82
10712;BME280;5407;51.234;6.804;2023-08-06T08:39:16;99925.19;;;22.14;65.88
10712;BME280;5407;51.234;6.804;2023-08-06T08:41:43;99928.53;;;21.93;65.77
10712;BME280;5407;51.234;6.804;2023-08-06T08:44:13;99925.34;;;21.94;66.52
10712;BME280;5407;51.234;6.804;2023-08-06T08:46:43;99933.53;;;22.10;65.63
10712;BME280;5407;51.234;6.804;2023-08-06T08:49:11;99918.31;;;21.93;64.51
10712;BME280;5407;51.234;6.804;2023-08-06T08:51:38;99921.66;;;21.72;65.38
10712;BME280;5407;51.234;6.804;2023-08-06T08:54:07;99930.16;;;21.90;64.97
10712;BME280;5407;51.234;6.804;2023-08-06T08:56:35;99925.72;;;22.09;63.83
10712;BME280;5407;51.234;6.804;2023-08-06T08:59:02;99936.06;;;21.76;65.64
10712;BME280;5407;51.234;6.804;2023-08-06T09:01:30;99931.03;;;21.87;65.82
10712;BME280;5407;51.234;6.804;2023-08-06T09:03:58;99929.97;;;21.97;64.84
10712;BME280;5407;51.234;6.804;2023-08-06T09:06:27;99932.81;;;21.94;65.58
10712;BME280;5407;51.234;6.804;2023-08-06T09:09:01;99930.28;;;21.87;65.05
10712;BME280;5407;51.234;6.804;2023-08-06T09:11:30;99941.63;;;22.01;63.46
10712;BME280;5407;51.234;6.804;2023-08-06T09:14:06;99946.03;;;21.99;62.97
10712;BME280;5407;51.234;6.804;2023-08-06T09:16:35;99944.03;;;21.99;63.44
10712;BME280;5407;51.234;6.804;2023-08-06T09:19:12;99941.22;;;22.15;63.17
10712;BME280;5407;51.234;6.804;2023-08-06T09:21:41;99940.97;;;22.38;62.09
10712;BME280;5407;51.234;6.804;2023-08-06T09:24:08;99947.69;;;22.87;61.01
10712;BME280;5407;51.234;6.804;2023-08-06T09:26:37;99953.19;;;22.49;61.82
10712;BME280;5407;51.234;6.804;2023-08-06T09:29:05;99956.00;;;21.93;64.29
10712;BME280;5407;51.234;6.804;2023-08-06T09:31:33;99966.22;;;21.48;67.56
10712;BME280;5407;51.234;6.804;2023-08-06T09:34:02;99975.81;;;21.08;71.27
10712;BME280;5407;51.234;6.804;2023-08-06T09:36:29;99969.16;;;20.73;77.44
10712;BME280;5407;51.234;6.804;2023-08-06T09:38:56;99976.41;;;20.64;80.00
10712;BME280;5407;51.234;6.804;2023-08-06T09:41:26;99983.97;;;20.41;82.03
10712;BME280;5407;51.234;6.804;2023-08-06T09:43:54;99981.81;;;20.32;83.28
10712;BME280;5407;51.234;6.804;2023-08-06T09:46:21;99984.97;;;20.31;84.47
10712;BME280;5407;51.234;6.804;2023-08-06T09:48:50;99987.78;;;20.08;87.10
10712;BME280;5407;51.234;6.804;2023-08-06T09:51:18;99992.34;;;20.34;85.75
10712;BME280;5407;51.234;6.804;2023-08-06T09:53:47;99992.41;;;20.11;87.30
10712;BME280;5407;51.234;6.804;2023-08-06T09:56:17;99990.94;;;20.06;88.33
10712;BME280;5407;51.234;6.804;2023-08-06T09:58:45;99992.63;;;20.00;89.74
10712;BME280;5407;51.234;6.804;2023-08-06T10:01:14;99996.66;;;19.92;89.44
10712;BME280;5407;51.234;6.804;2023-08-06T10:03:42;99998.63;;;19.92;89.32
10712;BME280;5407;51.234;6.804;2023-08-06T10:06:10;100003.94;;;20.02;86.08
10712;BME280;5407;51.234;6.804;2023-08-06T10:08:39;100005.09;;;19.59;90.13
10712;BME280;5407;51.234;6.804;2023-08-06T10:11:07;100006.16;;;19.42;91.17
10712;BME280;5407;51.234;6.804;2023-08-06T10:13:36;100008.59;;;19.10;94.34
10712;BME280;5407;51.234;6.804;2023-08-06T10:16:04;99998.97;;;19.02;94.15
10712;BME280;5407;51.234;6.804;2023-08-06T10:18:31;100003.28;;;18.73;96.20
10712;BME280;5407;51.234;6.804;2023-08-06T10:20:59;100001.66;;;18.49;97.51
10712;BME280;5407;51.234;6.804;2023-08-06T10:23:33;100011.88;;;18.08;99.17
10712;BME280;5407;51.234;6.804;2023-08-06T10:26:05;100014.22;;;18.43;97.72
10712;BME280;5407;51.234;6.804;2023-08-06T10:28:34;100021.06;;;18.58;98.39
10712;BME280;5407;51.234;6.804;2023-08-06T10:31:02;100024.56;;;18.59;98.65
10712;BME280;5407;51.234;6.804;2023-08-06T10:33:41;100026.19;;;18.19;99.80
10712;BME280;5407;51.234;6.804;2023-08-06T10:36:09;100025.81;;;18.17;100.00
10712;BME280;5407;51.234;6.804;2023-08-06T10:38:44;100026.53;;;17.84;100.00
10712;BME280;5407;51.234;6.804;2023-08-06T10:41:22;100037.28;;;18.02;100.00
10712;BME280;5407;51.234;6.804;2023-08-06T10:43:50;100041.97;;;18.01;100.00
10712;BME280;5407;51.234;6.804;2023-08-06T10:46:26;100047.09;;;18.36;100.00
10712;BME280;5407;51.234;6.804;2023-08-06T10:48:54;100046.19;;;18.09;99.71
10712;BME280;5407;51.234;6.804;2023-08-06T10:51:21;100058.06;;;17.92;98.40
10712;BME280;5407;51.234;6.804;2023-08-06T10:53:50;100062.16;;;17.70;98.63
10712;BME280;5407;51.234;6.804;2023-08-06T10:56:19;100059.00;;;17.75;97.67
10712;BME280;5407;51.234;6.804;2023-08-06T10:58:49;100064.34;;;17.89;97.90
10712;BME280;5407;51.234;6.804;2023-08-06T11:01:16;100055.88;;;17.73;97.80
10712;BME280;5407;51.234;6.804;2023-08-06T11:03:45;100068.34;;;17.78;97.82
10712;BME280;5407;51.234;6.804;2023-08-06T11:06:17;100071.28;;;17.97;97.21
10712;BME280;5407;51.234;6.804;2023-08-06T11:08:47;100076.53;;;17.74;96.84
10712;BME280;5407;51.234;6.804;2023-08-06T11:11:15;100077.03;;;17.63;97.72
10712;BME280;5407;51.234;6.804;2023-08-06T11:13:45;100082.03;;;17.71;98.49
10712;BME280;5407;51.234;6.804;2023-08-06T11:16:13;100089.50;;;17.63;98.50
10712;BME280;5407;51.234;6.804;2023-08-06T11:18:40;100085.84;;;17.80;98.15
10712;BME280;5407;51.234;6.804;2023-08-06T11:21:07;100081.13;;;17.84;97.84
10712;BME280;5407;51.234;6.804;2023-08-06T11:23:34;100085.94;;;18.10;96.64
10712;BME280;5407;51.234;6.804;2023-08-06T11:26:02;100078.88;;;18.16;96.50
10712;BME280;5407;51.234;6.804;2023-08-06T11:28:28;100088.94;;;17.82;98.87
10712;BME280;5407;51.234;6.804;2023-08-06T11:30:58;100079.91;;;17.92;99.60
10712;BME280;5407;51.234;6.804;2023-08-06T11:33:28;100085.31;;;17.96;99.66
10712;BME280;5407;51.234;6.804;2023-08-06T11:35:56;100090.00;;;17.95;99.35
10712;BME280;5407;51.234;6.804;2023-08-06T11:38:25;100093.56;;;17.85;99.58
10712;BME280;5407;51.234;6.804;2023-08-06T11:40:52;100095.47;;;17.95;100.00
10712;BME280;5407;51.234;6.804;2023-08-06T11:43:20;100105.94;;;18.00;100.00
10712;BME280;5407;51.234;6.804;2023-08-06T11:45:48;100107.84;;;18.03;100.00
10712;BME280;5407;51.234;6.804;2023-08-06T11:48:17;100099.09;;;17.78;100.00
10712;BME280;5407;51.234;6.804;2023-08-06T11:50:44;100113.63;;;18.12;99.87
10712;BME280;5407;51.234;6.804;2023-08-06T11:53:13;100107.94;;;17.96;100.00
10712;BME280;5407;51.234;6.804;2023-08-06T11:55:40;100111.53;;;17.86;100.00
10712;BME280;5407;51.234;6.804;2023-08-06T11:58:09;100115.16;;;17.69;100.00
10712;BME280;5407;51.234;6.804;2023-08-06T12:00:36;100109.72;;;17.69;100.00
10712;BME280;5407;51.234;6.804;2023-08-06T12:03:04;100115.09;;;17.76;100.00
10712;BME280;5407;51.234;6.804;2023-08-06T12:05:33;100119.06;;;17.68;100.00
10712;BME280;5407;51.234;6.804;2023-08-06T12:08:01;100118.56;;;17.80;100.00
10712;BME280;5407;51.234;6.804;2023-08-06T12:10:29;100133.69;;;17.92;100.00
10712;BME280;5407;51.234;6.804;2023-08-06T12:12:57;100126.66;;;17.94;100.00
10712;BME280;5407;51.234;6.804;2023-08-06T12:15:24;100137.47;;;18.05;100.00
10712;BME280;5407;51.234;6.804;2023-08-06T12:17:51;100130.56;;;17.93;100.00
10712;BME280;5407;51.234;6.804;2023-08-06T12:20:18;100136.78;;;17.94;100.00
10712;BME280;5407;51.234;6.804;2023-08-06T12:22:46;100141.34;;;18.11;99.74
10712;BME280;5407;51.234;6.804;2023-08-06T12:25:13;100139.94;;;17.92;100.00
10712;BME280;5407;51.234;6.804;2023-08-06T12:27:42;100136.13;;;17.79;100.00
10712;BME280;5407;51.234;6.804;2023-08-06T12:30:10;100143.03;;;17.94;100.00
10712;BME280;5407;51.234;6.804;2023-08-06T12:32:37;100138.03;;;17.86;100.00
10712;BME280;5407;51.234;6.804;2023-08-06T12:35:05;100146.81;;;18.07;100.00
10712;BME280;5407;51.234;6.804;2023-08-06T12:37:33;100143.34;;;18.03;100.00
10712;BME280;5407;51.234;6.804;2023-08-06T12:40:02;100143.84;;;17.91;100.00
10712;BME280;5407;51.234;6.804;2023-08-06T12:42:30;100153.22;;;17.87;100.00
10712;BME280;5407;51.234;6.804;2023-08-06T12:44:56;100154.28;;;18.00;100.00
10712;BME280;5407;51.234;6.804;2023-08-06T12:47:23;100151.66;;;17.89;100.00
10712;BME280;5407;51.234;6.804;2023-08-06T12:49:50;100171.06;;;17.98;99.90
10712;BME280;5407;51.234;6.804;2023-08-06T12:52:19;100158.59;;;17.97;100.00
10712;BME280;5407;51.234;6.804;2023-08-06T12:54:47;100170.34;;;17.91;100.00
10712;BME280;5407;51.234;6.804;2023-08-06T12:57:15;100171.88;;;17.92;100.00
10712;BME280;5407;51.234;6.804;2023-08-06T12:59:42;100171.41;;;18.04;99.43
10712;BME280;5407;51.234;6.804;2023-08-06T13:02:09;100186.38;;;18.36;98.05
10712;BME280;5407;51.234;6.804;2023-08-06T13:04:36;100180.25;;;18.18;97.42
10712;BME280;5407;51.234;6.804;2023-08-06T13:07:03;100189.00;;;17.96;97.83
10712;BME280;5407;51.234;6.804;2023-08-06T13:09:31;100189.75;;;18.03;97.44
10712;BME280;5407;51.234;6.804;2023-08-06T13:11:58;100188.88;;;18.13;96.28